createdAt,value
2023-03-23T07:14:59.119Z,98979.00
2023-03-23T07:15:10.505Z,98973.00
2023-03-23T07:15:21.493Z,98973.00
2023-03-23T07:15:32.301Z,98977.00
2023-03-23T07:15:43.528Z,98979.00
2023-03-23T07:15:54.080Z,98981.00
2023-03-23T07:16:05.284Z,98979.00
2023-03-23T07:16:17.969Z,98977.00
2023-03-23T07:16:26.927Z,98977.00
2023-03-23T07:16:37.785Z,98979.00
2023-03-23T07:16:48.665Z,98981.00
2023-03-23T07:16:59.524Z,98981.00
2023-03-23T07:17:10.406Z,98983.00
2023-03-23T07:17:21.341Z,98979.00
2023-03-23T07:17:32.283Z,98979.00
2023-03-23T07:17:43.150Z,98981.00
2023-03-23T07:17:54.013Z,98981.00
2023-03-23T07:22:19.939Z,98979.00
2023-03-23T07:22:32.037Z,98981.00
2023-03-23T07:22:41.949Z,98981.00
2023-03-23T07:22:52.852Z,98983.00
2023-03-23T07:23:03.810Z,98979.00
2023-03-23T07:23:14.724Z,98979.00
2023-03-23T07:23:25.658Z,98983.00
2023-03-23T07:23:36.528Z,98983.00
2023-03-23T07:23:47.413Z,98981.00
2023-03-23T07:23:58.330Z,98981.00
2023-03-23T07:24:09.323Z,98979.00
2023-03-23T07:28:47.626Z,98985.00
2023-03-23T07:28:59.992Z,98987.00
2023-03-23T07:29:10.383Z,98985.00
2023-03-23T07:29:21.478Z,98985.00
2023-03-23T07:29:31.942Z,98997.00
2023-03-23T07:29:43.862Z,98987.00
2023-03-23T07:29:53.777Z,98997.00
2023-03-23T07:30:04.794Z,98995.00
2023-03-23T07:30:15.750Z,98997.00
2023-03-23T07:30:27.070Z,98995.00
2023-03-23T07:30:37.033Z,98995.00
2023-03-23T07:30:47.895Z,98995.00
2023-03-23T07:30:58.992Z,98997.00
2023-03-23T07:31:17.395Z,98995.00
2023-03-23T07:31:26.179Z,98983.00
2023-03-23T07:31:36.299Z,98987.00
2023-03-23T07:31:45.725Z,98995.00
2023-03-23T07:31:57.556Z,98995.00
2023-03-23T07:32:09.213Z,98987.00
2023-03-23T07:32:17.853Z,98997.00
2023-03-23T07:32:28.626Z,98997.00
2023-03-23T07:32:39.064Z,98999.00
2023-03-23T07:32:50.255Z,98999.00
2023-03-23T07:33:00.906Z,98999.00
2023-03-23T07:33:11.497Z,98999.00
2023-03-23T07:33:22.363Z,98999.00
2023-03-23T07:33:34.047Z,98997.00
2023-03-23T07:33:44.297Z,98997.00
2023-03-23T07:33:54.728Z,99003.00
2023-03-23T07:34:05.594Z,98997.00
2023-03-23T07:34:16.499Z,98999.00
2023-03-23T07:34:27.429Z,99001.00
2023-03-23T07:34:38.388Z,99001.00
2023-03-23T07:34:49.284Z,99001.00
2023-03-23T07:35:00.397Z,99001.00
2023-03-23T07:35:10.978Z,99003.00
2023-03-23T07:35:21.398Z,99003.00
2023-03-23T07:35:32.024Z,99009.00
2023-03-23T07:35:42.916Z,99007.00
2023-03-23T07:35:53.518Z,99007.00
2023-03-23T07:36:04.024Z,99005.00
2023-03-23T07:36:14.943Z,99009.00
2023-03-23T07:36:28.568Z,99009.00
2023-03-23T07:36:38.622Z,99007.00
2023-03-23T07:36:47.451Z,99005.00
2023-03-23T07:36:58.453Z,99009.00
2023-03-23T07:37:12.750Z,99007.00
2023-03-23T07:37:20.890Z,99005.00
2023-03-23T07:37:30.662Z,99007.00
2023-03-23T07:37:42.047Z,99001.00
2023-03-23T07:37:52.503Z,99003.00
2023-03-23T07:38:03.261Z,99003.00
2023-03-23T07:38:14.206Z,99001.00
2023-03-23T07:38:24.920Z,99001.00
2023-03-23T07:38:35.058Z,99003.00
2023-03-23T07:38:45.926Z,99003.00
2023-03-23T07:38:59.046Z,99001.00
2023-03-23T07:39:07.874Z,99001.00
2023-03-23T07:39:19.046Z,98997.00
2023-03-23T07:39:29.066Z,98999.00
2023-03-23T07:39:39.539Z,98999.00
2023-03-23T07:39:52.033Z,98997.00
2023-03-23T07:40:01.418Z,98997.00
2023-03-23T07:40:11.888Z,98997.00
2023-03-23T07:40:23.738Z,98997.00
2023-03-23T07:40:33.852Z,98999.00
2023-03-23T07:40:44.330Z,98999.00
2023-03-23T07:40:55.311Z,98999.00
2023-03-23T07:41:06.496Z,99003.00
2023-03-23T07:41:17.325Z,98999.00
2023-03-23T07:41:27.866Z,99001.00
2023-03-23T07:41:38.791Z,99003.00
2023-03-23T07:41:49.664Z,99001.00
2023-03-23T07:42:00.910Z,99001.00
2023-03-23T07:42:11.388Z,99001.00
2023-03-23T07:42:22.639Z,98999.00
2023-03-23T07:42:33.294Z,99001.00
2023-03-23T07:42:44.177Z,98999.00
2023-03-23T07:42:55.108Z,98999.00
2023-03-23T07:43:06.056Z,98997.00
2023-03-23T07:43:16.929Z,98999.00
2023-03-23T07:43:27.792Z,99001.00
2023-03-23T07:43:38.945Z,99001.00
2023-03-23T07:43:49.360Z,98999.00
2023-03-23T07:44:00.237Z,98999.00
2023-03-23T07:44:11.272Z,98999.00
2023-03-23T07:44:22.554Z,99001.00
2023-03-23T07:44:32.475Z,99001.00
2023-03-23T07:44:43.886Z,98999.00
2023-03-23T07:44:54.484Z,98997.00
2023-03-23T07:45:06.549Z,98999.00
2023-03-23T07:45:16.587Z,98999.00
2023-03-23T07:45:27.551Z,99001.00
2023-03-23T07:45:37.137Z,98999.00
2023-03-23T07:45:48.060Z,98999.00
2023-03-23T07:45:59.066Z,98985.00
2023-03-23T07:46:09.542Z,98987.00
2023-03-23T07:46:20.868Z,98987.00
2023-03-23T07:46:31.010Z,98995.00
2023-03-23T07:46:41.937Z,98987.00
2023-03-23T07:47:02.766Z,98999.00
2023-03-23T07:47:15.410Z,98995.00
2023-03-23T07:47:25.685Z,98999.00
2023-03-23T07:47:36.222Z,98995.00
2023-03-23T07:47:47.099Z,98995.00
2023-03-23T07:47:58.139Z,98997.00
2023-03-23T07:48:15.885Z,98995.00
2023-03-23T07:48:21.397Z,98987.00
2023-03-23T07:48:30.070Z,98997.00
2023-03-23T07:48:40.497Z,98995.00
2023-03-23T07:48:51.361Z,98987.00
2023-03-23T07:49:02.252Z,98985.00
2023-03-23T07:49:13.123Z,98995.00
2023-03-23T07:49:24.007Z,98995.00
2023-03-23T07:49:34.955Z,98995.00
2023-03-23T07:49:45.845Z,98997.00
2023-03-23T07:49:56.774Z,99001.00
2023-03-23T07:50:07.690Z,98997.00
2023-03-23T07:50:18.580Z,98995.00
2023-03-23T07:50:29.618Z,98987.00
2023-03-23T07:50:40.049Z,98997.00
2023-03-23T07:50:50.919Z,98999.00
2023-03-23T07:51:01.806Z,98997.00
2023-03-23T07:51:12.674Z,99005.00
2023-03-23T07:51:23.592Z,98997.00
2023-03-23T07:51:35.834Z,98999.00
2023-03-23T07:51:45.612Z,98997.00
2023-03-23T07:51:56.546Z,98997.00
2023-03-23T07:52:07.457Z,98997.00
2023-03-23T07:52:18.503Z,99003.00
2023-03-23T07:52:28.968Z,99001.00
2023-03-23T07:52:39.903Z,99003.00
2023-03-23T07:52:50.377Z,99007.00
2023-03-23T07:53:05.062Z,99009.00
2023-03-23T07:53:12.174Z,99009.00
2023-03-23T07:53:24.049Z,99015.00
2023-03-23T07:53:33.628Z,99007.00
2023-03-23T07:53:44.183Z,99011.00
2023-03-23T07:53:55.098Z,99009.00
2023-03-23T07:54:06.708Z,99009.00
2023-03-23T07:54:16.692Z,99011.00
2023-03-23T07:54:27.629Z,99011.00
2023-03-23T07:54:38.502Z,99011.00
2023-03-23T07:54:50.554Z,99013.00
2023-03-23T07:55:00.004Z,99015.00
2023-03-23T07:55:10.422Z,99011.00
2023-03-23T07:55:21.287Z,99007.00
2023-03-23T07:55:32.160Z,99005.00
2023-03-23T07:55:43.002Z,99005.00
2023-03-23T07:55:53.602Z,99005.00
2023-03-23T07:56:04.496Z,99005.00
2023-03-23T07:56:15.356Z,99007.00
2023-03-23T07:56:26.207Z,99001.00
2023-03-23T07:56:38.056Z,99007.00
2023-03-23T07:56:58.557Z,99005.00
2023-03-23T07:57:09.019Z,99001.00
2023-03-23T07:57:19.890Z,99003.00
2023-03-23T07:57:31.839Z,99005.00
2023-03-23T07:57:42.473Z,99007.00
2023-03-23T07:57:52.976Z,99003.00
2023-03-23T07:58:03.159Z,98999.00
2023-03-23T07:58:14.151Z,98999.00
2023-03-23T07:58:24.668Z,99001.00
2023-03-23T07:58:35.981Z,98997.00
2023-03-23T07:58:46.402Z,99001.00
2023-03-23T07:58:57.570Z,99001.00
2023-03-23T07:59:09.552Z,99001.00
2023-03-23T07:59:20.647Z,99003.00
2023-03-23T07:59:38.558Z,98999.00
2023-03-23T07:59:45.929Z,99003.00
2023-03-23T07:59:54.148Z,98999.00
2023-03-23T08:00:06.001Z,98999.00
2023-03-23T08:00:21.687Z,99003.00
2023-03-23T08:00:26.766Z,98999.00
2023-03-23T08:00:41.230Z,99001.00
2023-03-23T08:00:54.323Z,99005.00
2023-03-23T08:01:03.054Z,98997.00
2023-03-23T08:01:13.470Z,98995.00
2023-03-23T08:01:24.055Z,98999.00
2023-03-23T08:01:32.716Z,98997.00
2023-03-23T08:01:45.307Z,99001.00
2023-03-23T08:02:03.058Z,98995.00
2023-03-23T08:02:13.054Z,98995.00
2023-03-23T08:02:23.037Z,98997.00
2023-03-23T08:02:31.847Z,98995.00
2023-03-23T08:02:44.299Z,98987.00
2023-03-23T08:02:51.509Z,98995.00
2023-03-23T08:03:12.594Z,98997.00
2023-03-23T08:03:24.060Z,98995.00
2023-03-23T08:03:34.369Z,98997.00
2023-03-23T08:03:47.364Z,98995.00
2023-03-23T08:03:59.554Z,98987.00
2023-03-23T08:04:09.190Z,98985.00
2023-03-23T08:04:21.263Z,98987.00
2023-03-23T08:04:30.476Z,98987.00
2023-03-23T08:04:41.496Z,98987.00
2023-03-23T08:04:52.163Z,98987.00
2023-03-23T08:05:00.957Z,98997.00
2023-03-23T08:05:12.983Z,98995.00
2023-03-23T08:05:23.193Z,98995.00
2023-03-23T08:05:36.414Z,98997.00
2023-03-23T08:05:47.946Z,98995.00
2023-03-23T08:05:57.554Z,98987.00
2023-03-23T08:06:10.056Z,98997.00
2023-03-23T08:06:24.538Z,98995.00
2023-03-23T08:06:33.856Z,98997.00
2023-03-23T08:06:44.620Z,98987.00
2023-03-23T08:06:56.724Z,98995.00
2023-03-23T08:07:08.254Z,98987.00
2023-03-23T08:07:20.794Z,98983.00
2023-03-23T08:07:32.637Z,98995.00
2023-03-23T08:07:44.182Z,98981.00
2023-03-23T08:07:58.054Z,98987.00
2023-03-23T08:08:14.857Z,98987.00
2023-03-23T08:08:28.352Z,98987.00
2023-03-23T08:08:41.164Z,99001.00
2023-03-23T08:09:04.079Z,98997.00
2023-03-23T08:09:16.288Z,98999.00
2023-03-23T08:09:28.588Z,98995.00
2023-03-23T08:09:41.723Z,98997.00
2023-03-23T08:09:53.616Z,98997.00
2023-03-23T08:10:08.059Z,98999.00
2023-03-23T08:10:32.145Z,99003.00
2023-03-23T08:11:11.735Z,99001.00
2023-03-23T08:11:30.615Z,98985.00
2023-03-23T08:11:55.194Z,98995.00
2023-03-23T08:12:10.581Z,98997.00
2023-03-23T08:12:29.818Z,98997.00
2023-03-23T08:12:47.947Z,98997.00
2023-03-23T08:13:08.433Z,98997.00
2023-03-23T08:13:41.549Z,98987.00
2023-03-23T08:13:54.351Z,98995.00
2023-03-23T08:14:07.694Z,98987.00
2023-03-23T08:14:24.257Z,98987.00
2023-03-23T08:14:42.383Z,98995.00
2023-03-23T08:14:55.743Z,98997.00
2023-03-23T08:15:04.035Z,98997.00
2023-03-23T08:15:14.112Z,98997.00
2023-03-23T08:15:29.369Z,99001.00
2023-03-23T08:15:39.558Z,98995.00
2023-03-23T08:15:50.424Z,98995.00
2023-03-23T08:16:04.432Z,98997.00
2023-03-23T08:16:12.436Z,98995.00
2023-03-23T08:16:23.760Z,99001.00
2023-03-23T08:16:33.072Z,98997.00
2023-03-23T08:16:43.573Z,98999.00
2023-03-23T08:17:00.509Z,98997.00
2023-03-23T08:17:13.334Z,98995.00
2023-03-23T08:17:26.457Z,98987.00
2023-03-23T08:17:36.469Z,98987.00
2023-03-23T08:17:48.636Z,98995.00
2023-03-23T08:17:58.188Z,98999.00
2023-03-23T08:18:57.421Z,98999.00
2023-03-23T08:19:12.466Z,98995.00
2023-03-23T08:19:26.061Z,98999.00
2023-03-23T08:19:37.937Z,98999.00
2023-03-23T08:19:50.824Z,99001.00
2023-03-23T08:20:05.122Z,99001.00
2023-03-23T08:20:20.708Z,98987.00
2023-03-23T08:20:33.808Z,98995.00
2023-03-23T08:20:46.712Z,98995.00
2023-03-23T08:20:59.217Z,99001.00
2023-03-23T08:21:11.669Z,98995.00
2023-03-23T08:21:25.039Z,98997.00
2023-03-23T08:21:37.721Z,98995.00
2023-03-23T08:21:47.695Z,98997.00
2023-03-23T08:22:00.770Z,98999.00
2023-03-23T08:22:06.592Z,98999.00
2023-03-23T08:22:16.778Z,99003.00
2023-03-23T08:22:28.199Z,99003.00
2023-03-23T08:22:51.305Z,98997.00
2023-03-23T08:22:53.517Z,99001.00
2023-03-23T08:23:03.436Z,98999.00
2023-03-23T08:23:21.604Z,99001.00
2023-03-23T08:23:31.898Z,99001.00
2023-03-23T08:23:43.099Z,99001.00
2023-03-23T08:23:54.203Z,99001.00
2023-03-23T08:24:04.640Z,99003.00
2023-03-23T08:24:30.895Z,99001.00
2023-03-23T08:24:41.210Z,99001.00
2023-03-23T08:24:54.450Z,99003.00
2023-03-23T08:25:09.208Z,99007.00
2023-03-23T08:25:19.950Z,99003.00
2023-03-23T08:25:32.963Z,99003.00
2023-03-23T08:25:48.119Z,99005.00
2023-03-23T08:25:58.329Z,99005.00
2023-03-23T08:26:12.621Z,99005.00
2023-03-23T08:26:27.326Z,99005.00
2023-03-23T08:26:42.615Z,99009.00
2023-03-23T08:26:57.409Z,99005.00
2023-03-23T08:27:16.649Z,99009.00
2023-03-23T08:27:28.335Z,99007.00
2023-03-23T08:27:40.979Z,99007.00
2023-03-23T08:27:52.744Z,99005.00
2023-03-23T08:28:05.289Z,99005.00
2023-03-23T08:28:16.875Z,99005.00
2023-03-23T08:28:27.808Z,99005.00
2023-03-23T08:28:43.248Z,99003.00
2023-03-23T08:28:53.620Z,99005.00
2023-03-23T08:29:04.091Z,99007.00
2023-03-23T08:29:14.626Z,99009.00
2023-03-23T08:29:25.201Z,99007.00
2023-03-23T08:29:36.153Z,99003.00
2023-03-23T08:29:47.211Z,99003.00
2023-03-23T08:29:58.055Z,99001.00
2023-03-23T08:30:09.604Z,99003.00
2023-03-23T08:30:19.571Z,99003.00
2023-03-23T08:30:30.828Z,98999.00
2023-03-23T08:30:48.649Z,99005.00
2023-03-23T08:31:00.575Z,99001.00
2023-03-23T08:31:10.117Z,98997.00
2023-03-23T08:32:07.487Z,99005.00
2023-03-23T08:32:18.581Z,99007.00
2023-03-23T08:32:27.479Z,99005.00
2023-03-23T08:32:40.983Z,99003.00
2023-03-23T08:32:48.989Z,99009.00
2023-03-23T08:33:00.101Z,99003.00
2023-03-23T08:33:11.118Z,99007.00
2023-03-23T08:33:21.207Z,99003.00
2023-03-23T08:33:31.866Z,99003.00
2023-03-23T08:33:43.442Z,99011.00
2023-03-23T08:33:53.104Z,99013.00
2023-03-23T08:34:04.479Z,99007.00
2023-03-23T08:34:15.130Z,99013.00
2023-03-23T08:34:25.759Z,99013.00
2023-03-23T08:34:40.071Z,99011.00
2023-03-23T08:34:47.878Z,99009.00
2023-03-23T08:34:59.458Z,99015.00
2023-03-23T08:35:10.181Z,99009.00
2023-03-23T08:35:20.488Z,99009.00
2023-03-23T08:35:31.488Z,99007.00
2023-03-23T08:35:41.968Z,99015.00
2023-03-23T08:35:52.822Z,99021.00
2023-03-23T08:36:06.918Z,99017.00
2023-03-23T08:36:16.645Z,99025.00
2023-03-23T08:36:26.195Z,99027.00
2023-03-23T08:36:37.255Z,99025.00
2023-03-23T08:36:49.850Z,99027.00
2023-03-23T08:37:01.670Z,99035.00
2023-03-23T08:37:12.928Z,99033.00
2023-03-23T08:37:24.269Z,99033.00
2023-03-23T08:37:37.553Z,99035.00
2023-03-23T08:37:47.885Z,99037.00
2023-03-23T08:37:58.147Z,99039.00
2023-03-23T08:38:08.229Z,99042.00
2023-03-23T08:38:20.458Z,99044.00
2023-03-23T08:38:30.197Z,99048.00
2023-03-23T08:38:41.087Z,99048.00
2023-03-23T08:39:05.754Z,99042.00
2023-03-23T08:39:14.560Z,99046.00
2023-03-23T08:39:26.334Z,99048.00
2023-03-23T08:39:37.439Z,99052.00
2023-03-23T08:39:48.003Z,99050.00
2023-03-23T08:39:58.725Z,99052.00
2023-03-23T08:40:09.417Z,99060.00
2023-03-23T08:40:21.478Z,99058.00
2023-03-23T08:40:30.355Z,99064.00
2023-03-23T08:40:42.948Z,99060.00
2023-03-23T08:40:54.035Z,99062.00
2023-03-23T08:41:05.639Z,99056.00
2023-03-23T08:41:22.451Z,99062.00
2023-03-23T08:41:31.566Z,99064.00
2023-03-23T08:41:42.232Z,99066.00
2023-03-23T08:41:53.200Z,99064.00
2023-03-23T08:42:03.443Z,99058.00
2023-03-23T08:42:15.526Z,99060.00
2023-03-23T08:42:25.519Z,99066.00
2023-03-23T08:42:38.230Z,99064.00
2023-03-23T08:42:52.465Z,99064.00
2023-03-23T08:43:01.304Z,99070.00
2023-03-23T08:43:09.407Z,99062.00
